Tri Cities Regional Tn Va Airport Bristol,Johnson,Kingsport US
ICAO: KTRI
IATA: TRI
Category: Large
Scheduled Services: Yes

Elevation: 1519 ft
TransAlt. 18000 ft.

Airport Communications:
APP:119.25
ATIS:118.25
CTAF:119.5
DEP:125.5
GND:121.7
NASHVILLE RDO:122.2
TWR:119.5
UNICOM:122.95

KTRI Zoom In..

Runways:

(A) RW 05 length 8000 ft width 150 ft
ILS 111.50 / hdg 48

(B) RW 09 length 4442 ft width 150 ft
---- / hdg 94

(C) RW 23 length 8000 ft width 150 ft
ILS 109.90 / hdg 228

(D) RW 27 length 4442 ft width 150 ft
---- / hdg 274

Location; KTRI
Day. 03 / Time. 01.53 Zulu
* Altimeter: 30.09
* Temperature: 23° c. 73.4°f.
* Wind from: KTR° Speed I kn.
Dewpoint: 17° c.
Visibility: 10 Statute Miles.
Clouds: Few 5000 ft.

KTRI 030153Z 21004KT 10SM FEW050 23/17 A3009 RMK AO2 SLP166 T02280167


Wind From KTR°
Speed I kn.

 
 
jpsmedia worldairports.se 2020   terms of use